createdAt,value
2023-03-07T00:00:45.941Z,109
2023-03-07T00:03:14.236Z,129
2023-03-07T00:05:42.484Z,119
2023-03-07T00:08:11.808Z,112
2023-03-07T00:10:39.007Z,111
2023-03-07T00:13:07.295Z,122
2023-03-07T00:15:35.558Z,115
2023-03-07T00:19:17.965Z,108
2023-03-07T00:21:46.265Z,117
2023-03-07T00:25:20.421Z,117
2023-03-07T00:27:48.687Z,125
2023-03-07T00:30:16.963Z,113
2023-03-07T00:32:45.226Z,122
2023-03-07T00:35:13.490Z,113
2023-03-07T00:37:41.747Z,118
2023-03-07T00:40:10.123Z,116
2023-03-07T00:42:38.290Z,115
2023-03-07T00:45:06.558Z,114
2023-03-07T00:47:34.816Z,110
2023-03-07T00:51:17.238Z,126
2023-03-07T00:53:45.501Z,110
2023-03-07T00:56:13.739Z,97
2023-03-07T00:58:42.063Z,114
2023-03-07T01:01:10.466Z,113
2023-03-07T01:03:38.591Z,136
2023-03-07T01:06:06.805Z,113
2023-03-07T01:08:35.065Z,112
2023-03-07T01:13:31.587Z,112
2023-03-07T01:17:14.323Z,106
2023-03-07T01:19:42.281Z,107
2023-03-07T01:22:10.571Z,113
2023-03-07T01:26:58.905Z,99
2023-03-07T01:29:27.164Z,103
2023-03-07T01:33:09.572Z,83
2023-03-07T01:35:37.829Z,85
2023-03-07T01:38:06.118Z,111
2023-03-07T01:40:34.377Z,101
2023-03-07T01:44:16.764Z,90
2023-03-07T01:46:45.032Z,90
2023-03-07T01:49:13.274Z,91
2023-03-07T01:51:41.553Z,89
2023-03-07T01:54:09.795Z,74
2023-03-07T01:56:38.069Z,83
2023-03-07T01:59:06.401Z,73
2023-03-07T02:01:34.703Z,72
2023-03-07T02:05:17.041Z,78
2023-03-07T02:07:45.331Z,74
2023-03-07T02:10:13.551Z,77
2023-03-07T02:12:41.831Z,69
2023-03-07T02:15:10.055Z,65
2023-03-07T02:17:38.360Z,74
2023-03-07T02:20:06.604Z,61
2023-03-07T02:22:34.945Z,71
2023-03-07T02:26:09.080Z,75
2023-03-07T02:28:37.332Z,61
2023-03-07T02:31:05.677Z,72
2023-03-07T02:33:33.909Z,61
2023-03-07T02:37:16.301Z,66
2023-03-07T02:39:44.542Z,61
2023-03-07T02:42:12.802Z,68
2023-03-07T02:44:41.082Z,69
2023-03-07T02:47:09.340Z,65
2023-03-07T02:49:37.602Z,69
2023-03-07T02:53:20.036Z,79
2023-03-07T02:55:48.272Z,82
2023-03-07T02:58:16.547Z,86
2023-03-07T03:00:44.815Z,82
2023-03-07T03:03:13.089Z,93
2023-03-07T03:05:41.345Z,96
2023-03-07T03:08:09.592Z,90
2023-03-07T03:10:37.899Z,88
2023-03-07T03:13:06.115Z,92
2023-03-07T03:15:34.462Z,98
2023-03-07T03:19:16.845Z,102
2023-03-07T03:21:45.123Z,96
2023-03-07T03:24:13.378Z,90
2023-03-07T03:26:33.503Z,93
2023-03-07T03:30:15.805Z,101
2023-03-07T03:32:44.058Z,95
2023-03-07T03:35:12.395Z,95
2023-03-07T03:37:48.857Z,92
2023-03-07T03:40:17.075Z,97
2023-03-07T03:42:45.366Z,92
2023-03-07T03:45:13.613Z,86
2023-03-07T03:47:41.891Z,101
2023-03-07T03:50:10.224Z,106
2023-03-07T03:52:38.418Z,86
2023-03-07T03:55:06.697Z,96
2023-03-07T03:57:34.919Z,107
2023-03-07T04:01:17.327Z,102
2023-03-07T04:03:45.647Z,89
2023-03-07T04:06:13.888Z,86
2023-03-07T04:08:42.140Z,97
2023-03-07T04:11:10.414Z,75
2023-03-07T04:13:38.693Z,82
2023-03-07T04:16:07.022Z,95
2023-03-07T04:18:35.255Z,93
2023-03-07T04:22:17.604Z,89
2023-03-07T04:24:45.883Z,98
2023-03-07T04:27:14.136Z,90
2023-03-07T04:29:42.410Z,88
2023-03-07T04:32:10.697Z,93
2023-03-07T04:34:38.936Z,94
2023-03-07T04:37:07.215Z,81
2023-03-07T04:40:41.446Z,90
2023-03-07T04:43:09.708Z,92
2023-03-07T04:45:37.976Z,90
2023-03-07T04:48:06.216Z,89
2023-03-07T04:50:34.483Z,95
2023-03-07T04:54:16.861Z,100
2023-03-07T04:56:45.166Z,99
2023-03-07T04:59:13.446Z,96
2023-03-07T05:01:41.782Z,95
2023-03-07T05:04:09.976Z,87
2023-03-07T05:06:38.245Z,55
2023-03-07T05:09:06.456Z,93
2023-03-07T05:11:34.779Z,93
2023-03-07T05:15:17.165Z,73
2023-03-07T05:17:45.427Z,91
2023-03-07T05:20:13.711Z,82
2023-03-07T05:22:41.938Z,97
2023-03-07T05:25:10.230Z,87
2023-03-07T05:27:38.454Z,80
2023-03-07T05:30:06.744Z,82
2023-03-07T05:32:35.041Z,80
2023-03-07T05:36:17.417Z,84
2023-03-07T05:38:45.662Z,81
2023-03-07T05:41:13.942Z,79
2023-03-07T05:43:42.182Z,79
2023-03-07T05:46:10.568Z,76
2023-03-07T05:50:58.834Z,88
2023-03-07T05:53:27.092Z,74
2023-03-07T05:57:09.482Z,68
2023-03-07T06:02:06.009Z,80
2023-03-07T06:05:48.409Z,89
2023-03-07T06:08:16.659Z,91
2023-03-07T06:10:44.966Z,80
2023-03-07T06:13:13.203Z,78
2023-03-07T06:15:41.516Z,81
2023-03-07T06:18:09.749Z,83
2023-03-07T06:20:38.033Z,71
2023-03-07T06:23:06.273Z,77
2023-03-07T06:25:34.553Z,95
2023-03-07T06:29:16.940Z,66
2023-03-07T06:31:45.241Z,68
2023-03-07T06:34:13.571Z,83
2023-03-07T06:36:41.758Z,59
2023-03-07T06:39:10.053Z,81
2023-03-07T06:41:38.297Z,84
2023-03-07T06:44:06.590Z,66
2023-03-07T06:46:34.850Z,70
2023-03-07T06:50:19.266Z,73
2023-03-07T06:52:45.466Z,74
2023-03-07T06:55:13.743Z,84
2023-03-07T06:57:42.004Z,69
2023-03-07T07:01:16.290Z,69
2023-03-07T07:03:44.467Z,75
2023-03-07T07:06:12.742Z,65
2023-03-07T07:08:41.024Z,68
2023-03-07T07:11:09.254Z,59
2023-03-07T07:13:37.568Z,59
2023-03-07T07:16:05.857Z,75
2023-03-07T07:19:48.228Z,67
2023-03-07T07:22:16.488Z,62
2023-03-07T07:24:44.749Z,63
2023-03-07T07:27:13.016Z,55
2023-03-07T07:32:09.621Z,61
2023-03-07T07:34:37.854Z,53
2023-03-07T07:37:06.069Z,54
2023-03-07T07:39:34.339Z,55
2023-03-07T07:43:16.767Z,60
2023-03-07T07:45:53.248Z,47
2023-03-07T07:48:21.451Z,57
2023-03-07T07:50:49.735Z,50
2023-03-07T07:53:18.060Z,55
2023-03-07T07:55:46.254Z,57
2023-03-07T07:58:14.537Z,56
2023-03-07T08:00:42.835Z,48
2023-03-07T08:03:11.077Z,53
2023-03-07T08:05:39.405Z,50
2023-03-07T08:08:07.612Z,54
2023-03-07T08:10:35.872Z,52
2023-03-07T08:14:10.144Z,64
2023-03-07T08:16:38.405Z,37
2023-03-07T08:19:06.622Z,47
2023-03-07T08:21:34.895Z,51
2023-03-07T08:25:17.273Z,45
2023-03-07T08:27:45.570Z,50
2023-03-07T08:30:13.871Z,54
2023-03-07T08:32:42.194Z,52
2023-03-07T08:35:10.322Z,51
2023-03-07T08:37:38.627Z,47
2023-03-07T08:40:06.910Z,56
2023-03-07T08:42:35.187Z,50
2023-03-07T08:46:17.629Z,51
2023-03-07T08:48:45.829Z,46
2023-03-07T08:51:14.107Z,53
2023-03-07T08:53:42.348Z,47
2023-03-07T08:56:10.607Z,59
2023-03-07T08:58:38.893Z,52
2023-03-07T09:01:07.189Z,47
2023-03-07T09:03:35.391Z,54
2023-03-07T09:07:17.799Z,50
2023-03-07T09:09:46.065Z,47
2023-03-07T09:12:14.915Z,50
2023-03-07T09:14:42.611Z,48
2023-03-07T09:17:10.944Z,52
2023-03-07T09:19:39.146Z,47
2023-03-07T09:22:07.438Z,48
2023-03-07T09:24:27.469Z,60
2023-03-07T09:28:09.898Z,44
2023-03-07T09:33:06.656Z,50
2023-03-07T09:35:34.754Z,43
2023-03-07T09:39:18.149Z,39
2023-03-07T09:41:45.440Z,48
2023-03-07T09:44:13.596Z,47
2023-03-07T09:46:41.946Z,47
2023-03-07T09:49:10.143Z,48
2023-03-07T09:51:38.465Z,55
2023-03-07T09:54:06.693Z,48
2023-03-07T09:56:34.979Z,51
2023-03-07T10:00:17.365Z,52
2023-03-07T10:02:45.628Z,51
2023-03-07T10:05:13.865Z,52
2023-03-07T10:07:42.173Z,39
2023-03-07T10:10:10.376Z,54
2023-03-07T10:12:38.699Z,53
2023-03-07T10:16:21.093Z,44
2023-03-07T10:18:49.335Z,47
2023-03-07T10:21:17.644Z,63
2023-03-07T10:23:45.883Z,59
2023-03-07T10:26:14.173Z,59
2023-03-07T10:28:43.065Z,53
2023-03-07T10:31:10.684Z,52
2023-03-07T10:33:40.235Z,53
2023-03-07T14:47:48.398Z,47
2023-03-07T14:56:28.793Z,44
2023-03-07T14:58:28.814Z,53
2023-03-07T15:01:28.842Z,59
2023-03-07T15:04:28.854Z,55
2023-03-07T15:06:28.795Z,61
2023-03-07T15:09:28.788Z,62
2023-03-07T15:12:28.824Z,67
2023-03-07T15:15:28.775Z,68
2023-03-07T15:17:28.820Z,59
2023-03-07T15:20:28.834Z,64
2023-03-07T15:23:28.755Z,65
2023-03-07T15:25:28.815Z,50
2023-03-07T15:28:28.830Z,54
2023-03-07T15:31:28.826Z,69
2023-03-07T15:34:28.827Z,71
2023-03-07T15:37:28.845Z,70
2023-03-07T15:39:28.839Z,71
2023-03-07T15:42:28.875Z,59
2023-03-07T15:45:28.824Z,57
2023-03-07T15:47:28.820Z,64
2023-03-07T15:49:28.883Z,65
2023-03-07T15:52:28.817Z,69
2023-03-07T15:54:28.924Z,64
2023-03-07T15:57:28.790Z,56
2023-03-07T15:59:28.813Z,61
2023-03-07T16:01:28.900Z,51
2023-03-07T16:04:28.810Z,61
2023-03-07T16:06:28.812Z,53
2023-03-07T16:08:28.875Z,58
2023-03-07T16:11:28.827Z,54
2023-03-07T16:14:28.805Z,63
2023-03-07T16:17:28.825Z,62
2023-03-07T16:19:28.857Z,59
2023-03-07T16:21:28.853Z,58
2023-03-07T16:24:28.774Z,72
2023-03-07T16:26:28.799Z,68
2023-03-07T16:28:28.887Z,63
2023-03-07T16:30:28.906Z,61
2023-03-07T16:33:29.880Z,56
2023-03-07T16:35:28.910Z,52
2023-03-07T16:38:28.819Z,74
2023-03-07T16:40:28.833Z,58
2023-03-07T16:43:28.844Z,56
2023-03-07T16:45:28.866Z,60
2023-03-07T16:48:28.814Z,54
2023-03-07T16:51:28.792Z,55
2023-03-07T16:53:28.802Z,49
2023-03-07T16:56:28.859Z,60
2023-03-07T16:59:28.777Z,55
2023-03-07T17:01:28.993Z,61
2023-03-07T17:04:28.834Z,70
2023-03-07T17:07:28.815Z,74
2023-03-07T17:09:28.803Z,71
2023-03-07T17:11:28.846Z,70
2023-03-07T17:14:28.800Z,60
2023-03-07T17:16:28.871Z,53
2023-03-07T17:19:28.850Z,59
2023-03-07T17:22:28.817Z,63
2023-03-07T17:24:28.818Z,54
2023-03-07T17:26:28.825Z,54
2023-03-07T17:28:28.820Z,59
2023-03-07T17:33:29.018Z,53
2023-03-07T17:35:28.838Z,54
2023-03-07T17:38:28.841Z,48
2023-03-07T17:41:28.798Z,59
2023-03-07T17:43:28.808Z,55
2023-03-07T17:45:28.808Z,48
2023-03-07T17:47:28.812Z,58
2023-03-07T17:50:28.882Z,49
2023-03-07T17:53:28.812Z,50
2023-03-07T17:55:28.801Z,62
2023-03-07T17:57:28.888Z,51
2023-03-07T18:00:28.833Z,48
2023-03-07T18:03:28.808Z,50
2023-03-07T18:06:28.843Z,56
2023-03-07T18:08:28.858Z,54
2023-03-07T18:11:28.871Z,61
2023-03-07T18:14:28.852Z,51
2023-03-07T18:17:35.701Z,65
2023-03-07T18:19:28.834Z,52
2023-03-07T18:21:28.877Z,61
2023-03-07T18:24:28.812Z,64
2023-03-07T18:26:28.843Z,56
2023-03-07T18:29:28.863Z,60
2023-03-07T18:32:29.328Z,59
2023-03-07T18:34:28.818Z,58
2023-03-07T18:36:28.842Z,53
2023-03-07T18:39:28.794Z,60
2023-03-07T18:41:28.827Z,58
2023-03-07T18:44:28.820Z,64
2023-03-07T18:46:28.840Z,56
2023-03-07T18:49:28.815Z,57
2023-03-07T18:51:28.789Z,50
2023-03-07T18:54:28.852Z,48
2023-03-07T18:57:28.768Z,65
2023-03-07T18:59:28.865Z,56
2023-03-07T19:02:28.917Z,56
2023-03-07T19:05:28.819Z,78
2023-03-07T19:08:28.820Z,53
2023-03-07T19:10:28.835Z,46
2023-03-07T19:12:28.842Z,59
2023-03-07T19:15:28.830Z,52
2023-03-07T19:17:28.868Z,61
2023-03-07T19:20:28.792Z,56
2023-03-07T19:22:28.822Z,60
2023-03-07T19:25:28.797Z,61
2023-03-07T19:27:28.821Z,49
2023-03-07T19:29:28.855Z,61
2023-03-07T19:32:28.906Z,58
2023-03-07T19:35:28.800Z,59
2023-03-07T19:37:28.815Z,62
2023-03-07T19:40:28.820Z,63
2023-03-07T19:43:28.811Z,54
2023-03-07T19:45:28.815Z,67
2023-03-07T19:48:28.777Z,60
2023-03-07T19:50:28.837Z,58
2023-03-07T19:53:28.803Z,57
2023-03-07T19:55:28.800Z,56
2023-03-07T19:58:28.783Z,58
2023-03-07T20:00:28.788Z,49
2023-03-07T20:02:28.820Z,57
2023-03-07T20:05:28.830Z,63
2023-03-07T20:07:28.891Z,52
2023-03-07T20:10:28.783Z,60
2023-03-07T20:12:28.850Z,61
2023-03-07T20:15:28.903Z,61
2023-03-07T20:18:28.807Z,65
2023-03-07T20:20:28.782Z,59
2023-03-07T20:22:28.811Z,59
2023-03-07T20:24:28.796Z,53
2023-03-07T20:27:28.812Z,54
2023-03-07T20:29:28.806Z,73
2023-03-07T20:32:28.825Z,71
2023-03-07T20:34:28.808Z,56
2023-03-07T20:37:28.821Z,78
2023-03-07T20:40:28.816Z,66
2023-03-07T20:42:28.864Z,60
2023-03-07T20:45:28.811Z,63
2023-03-07T20:47:28.850Z,68
2023-03-07T20:50:28.853Z,69
2023-03-07T20:53:28.834Z,58
2023-03-07T20:55:28.886Z,67
2023-03-07T20:58:28.879Z,62
2023-03-07T21:01:28.955Z,57
2023-03-07T21:03:28.915Z,35
2023-03-07T21:06:28.816Z,65
2023-03-07T21:08:28.788Z,74
2023-03-07T21:10:28.829Z,63
2023-03-07T21:12:28.853Z,63
2023-03-07T21:15:28.826Z,66
2023-03-07T21:17:28.843Z,66
2023-03-07T21:20:28.890Z,58
2023-03-07T21:23:28.855Z,62
2023-03-07T21:25:28.866Z,56
2023-03-07T21:27:28.871Z,60
2023-03-07T21:30:28.988Z,65
2023-03-07T21:33:28.899Z,65
2023-03-07T21:36:28.897Z,64
2023-03-07T21:38:28.903Z,64
2023-03-07T21:40:28.903Z,67
2023-03-07T21:43:28.906Z,56
2023-03-07T21:46:28.909Z,56
2023-03-07T21:48:28.930Z,49
2023-03-07T21:50:28.941Z,55
2023-03-07T21:53:28.859Z,71
2023-03-07T21:55:28.846Z,46
2023-03-07T21:57:28.905Z,59
2023-03-07T22:00:28.925Z,47
2023-03-07T22:03:28.924Z,53
2023-03-07T22:05:28.891Z,82
2023-03-07T22:08:28.876Z,52
2023-03-07T22:11:28.879Z,50
2023-03-07T22:13:28.862Z,61
2023-03-07T22:15:28.856Z,47
2023-03-07T22:17:28.908Z,50
2023-03-07T22:20:28.850Z,60
2023-03-07T22:23:28.874Z,52
2023-03-07T22:25:28.883Z,41
2023-03-07T22:28:28.859Z,59
2023-03-07T22:30:28.927Z,46
2023-03-07T22:32:29.070Z,47
2023-03-07T22:35:28.892Z,46
2023-03-07T22:37:28.859Z,53
2023-03-07T22:39:28.891Z,53
2023-03-07T22:42:28.860Z,51
2023-03-07T22:44:28.859Z,53
2023-03-07T22:46:28.947Z,55
2023-03-07T22:48:28.903Z,83
2023-03-07T22:51:28.859Z,54
2023-03-07T22:53:28.887Z,49
2023-03-07T22:57:28.873Z,57
2023-03-07T22:59:28.893Z,51
2023-03-07T23:01:29.033Z,55
2023-03-07T23:04:29.031Z,58
2023-03-07T23:07:28.996Z,57
2023-03-07T23:10:28.894Z,42
2023-03-07T23:12:28.885Z,55
2023-03-07T23:15:28.920Z,46
2023-03-07T23:17:28.840Z,45
2023-03-07T23:20:29.883Z,50
2023-03-07T23:23:28.852Z,62
2023-03-07T23:25:28.874Z,31
2023-03-07T23:27:28.952Z,37
2023-03-07T23:30:28.887Z,54
2023-03-07T23:32:28.957Z,59
2023-03-07T23:34:28.904Z,47
2023-03-07T23:36:28.927Z,51
2023-03-07T23:39:28.851Z,75
2023-03-07T23:42:28.882Z,44
2023-03-07T23:44:28.875Z,60
2023-03-07T23:47:28.826Z,65
2023-03-07T23:49:28.856Z,50
2023-03-07T23:51:28.845Z,58
2023-03-07T23:54:28.847Z,49
2023-03-07T23:56:28.867Z,46
2023-03-07T23:58:28.896Z,38
